Meteo Giornale » Osservazioni meteo Italia » Catania-Sigonella

ore: 01:55 - Osservazioni Meteo Catania-Sigonella
Lat. 37° 24' N Lon. 14° 55' E Alt. 22 metri s.l.m.

sereno Europe/Rome

14 °C

Sereno

Temp. 24 Ore

11 °C

25 °C

Ovest/Nord-Ovest

9.3 Km/h

Dew point 12 °C

Umidità 87 %

Visibilità  10 Km

Il sole sorge alle ore 05:43

Il sole tramonta alle ore 20:11

Data e Ora Cielo e Fenomeni T °C DP °C Um. % Pres. hPa Vis. km Vento km/h
Oggi h: 01:55 sereno Sereno 14 12 87 1016 10 O/NO 9.3
Ieri h: 23:55 sereno Sereno 14 14 100 1017 10 O 11.1
Ieri h: 22:55 sereno Sereno 16 16 100 1017 10 N 1.8
Ieri h: 21:55 poco_nuvoloso Poco Nuvoloso 17 15 88 1016 10 E 7.4
Ieri h: 20:55 poco_nuvoloso Poco Nuvoloso 17 14 82 1016 10 E/NE 9.3
Ieri h: 19:55 nuvoloso Nuvoloso 20 12 59 1016 10 E/NE 11.1
Ieri h: 18:55 nuvoloso Nuvoloso 20 12 59 1016 10 E/NE 22.2
Ieri h: 17:55 nuvoloso Nuvoloso 21 11 52 1016 10 E 24
Ieri h: 16:55 nuvoloso Nuvoloso 21 9 46 1016 10 E/SE 22.2
Ieri h: 15:55 nuvoloso Nuvoloso 23 6 33 1016 10 E 24
Ieri h: 14:55 nuvoloso Nuvoloso 25 3 23 1016 10 N/NO 13
Ieri h: 13:55 nuvoloso Nuvoloso 25 3 23 1016 10 N 5.5
Ieri h: 12:55 poco_nuvoloso Poco Nuvoloso 24 5 29 1017 10 N 3.7
Ieri h: 11:55 nuvoloso Nuvoloso 23 7 35 1017 10 N 5.5
Ieri h: 10:55 nuvoloso Nuvoloso 23 9 40 1017 10 N 5.5
Ieri h: 09:55 nuvoloso Nuvoloso 20 10 52 1017 10 N 3.7
Ieri h: 08:55 nuvoloso Nuvoloso 18 10 59 1017 10 N 5.5
Ieri h: 07:55 poco_nuvoloso Poco Nuvoloso 15 14 93 1017 10 O/SO 7.4
Ieri h: 06:55 poco_nuvoloso Poco Nuvoloso 11 11 100 1017 10 N 5.5
Ieri h: 05:55 poco_nuvoloso Poco Nuvoloso 12 12 100 1016 10 N 1.8
Ieri h: 04:55 poco_nuvoloso Poco Nuvoloso 12 12 100 1017 10 O 9.3
Ieri h: 03:55 sereno Sereno 13 13 100 1017 10 SO 9.3